Time;durP1;ratioP1;P1;durP2;ratioP2;P2;SDS_P1;SDS_P2;PMS_P1;PMS_P2;Temp;Humidity;BMP_temperature;BMP_pressure;BME280_temperature;BME280_humidity;BME280_pressure;Samples;Min_cycle;Max_cycle;Signal;HPM_P1;HPM_P2
2022/12/21 00:01:30;;;;;;;96.68;40.70;;;;;;;4.49;67.10;101959.22;5052325;28;20032;-76
2022/12/21 00:03:58;;;;;;;52.25;24.80;;;;;;;4.50;66.58;101950.28;5052421;28;20056;-74
2022/12/21 00:06:25;;;;;;;52.58;23.70;;;;;;;4.73;66.63;101993.00;5052621;28;20028;-76
2022/12/21 00:08:54;;;;;;;38.60;19.13;;;;;;;4.65;66.49;101995.03;5051993;28;20033;-75
2022/12/21 00:11:24;;;;;;;48.70;18.67;;;;;;;4.35;66.56;101981.88;5052155;28;20061;-75
2022/12/21 00:13:51;;;;;;;28.92;16.00;;;;;;;4.33;67.26;102006.81;5051925;28;20048;-76
2022/12/21 00:16:19;;;;;;;36.70;16.80;;;;;;;4.20;67.22;101992.19;5050574;28;20118;-76
2022/12/21 00:18:45;;;;;;;28.63;15.63;;;;;;;4.13;67.34;101985.31;5052254;28;20094;-75
2022/12/21 00:21:16;;;;;;;21.48;12.65;;;;;;;4.24;67.89;101978.72;5055787;28;20097;-78
2022/12/21 00:23:42;;;;;;;32.40;15.38;;;;;;;4.20;67.99;101977.06;5056329;28;20028;-75
2022/12/21 00:26:10;;;;;;;35.13;19.15;;;;;;;4.03;67.69;101970.56;5050415;28;20036;-74
2022/12/21 00:28:36;;;;;;;42.42;18.02;;;;;;;3.93;67.50;101938.06;5051951;28;20116;-75
2022/12/21 00:31:10;;;;;;;39.17;17.40;;;;;;;3.97;67.95;101976.09;5051997;28;20104;-75
2022/12/21 00:33:36;;;;;;;51.78;17.08;;;;;;;3.92;68.45;101976.22;5052028;28;20345;-77
2022/12/21 00:36:03;;;;;;;39.65;14.90;;;;;;;3.94;69.00;101978.88;5051816;28;20021;-76
2022/12/21 00:38:29;;;;;;;34.33;14.02;;;;;;;3.70;69.28;101929.97;5051769;28;20040;-76
2022/12/21 00:40:59;;;;;;;31.23;13.85;;;;;;;3.94;69.66;101969.09;5051894;28;20033;-75
2022/12/21 00:43:25;;;;;;;32.53;12.93;;;;;;;3.91;69.74;101971.84;5051578;28;20033;-75
2022/12/21 00:45:51;;;;;;;33.28;13.85;;;;;;;3.94;70.01;101969.09;5051734;28;20036;-75
2022/12/21 00:48:16;;;;;;;27.60;13.70;;;;;;;3.76;70.32;101921.78;5051660;28;20145;-76
2022/12/21 00:50:42;;;;;;;30.98;12.57;;;;;;;3.83;70.26;101933.94;5051761;28;20036;-76
2022/12/21 00:53:08;;;;;;;42.78;15.98;;;;;;;4.08;70.35;101961.50;5051656;28;20489;-76
2022/12/21 00:55:34;;;;;;;51.55;16.27;;;;;;;4.18;70.26;101962.94;5048802;28;20041;-75
2022/12/21 00:58:00;;;;;;;46.40;16.60;;;;;;;4.24;70.58;101960.09;5051210;28;20110;-76
2022/12/21 01:00:26;;;;;;;41.58;14.50;;;;;;;4.33;70.06;101959.75;5051549;28;20029;-75
2022/12/21 01:02:52;;;;;;;36.05;13.20;;;;;;;4.37;69.71;101955.22;5051493;28;20036;-77
2022/12/21 01:05:18;;;;;;;32.33;16.40;;;;;;;4.36;69.57;101962.31;5048979;28;20408;-75
2022/12/21 01:07:43;;;;;;;30.38;16.73;;;;;;;4.11;69.92;101940.09;5051191;28;20412;-76
2022/12/21 01:10:09;;;;;;;41.35;18.17;;;;;;;4.19;70.06;101943.38;5032288;28;20044;-77
2022/12/21 01:12:35;;;;;;;39.85;18.83;;;;;;;4.20;70.34;101950.44;5050961;28;20087;-75
2022/12/21 01:15:01;;;;;;;36.13;18.48;;;;;;;4.17;70.71;101950.56;5051290;28;20489;-75
2022/12/21 01:17:26;;;;;;;40.92;16.50;;;;;;;4.21;70.63;101946.00;5050937;28;20039;-74
2022/12/21 01:19:51;;;;;;;38.35;18.05;;;;;;;4.30;70.92;101941.22;5051247;28;20021;-75
2022/12/21 01:22:17;;;;;;;42.40;17.75;;;;;;;4.02;69.87;101902.28;5055933;28;20024;-75
2022/12/21 01:24:42;;;;;;;35.35;17.85;;;;;;;3.88;69.73;101893.91;5055943;28;20033;-75
2022/12/21 01:27:08;;;;;;;42.30;18.38;;;;;;;3.98;70.03;101944.09;5053421;28;20021;-75
2022/12/21 01:29:33;;;;;;;42.90;20.33;;;;;;;4.03;70.21;101951.94;5051059;28;20025;-75
2022/12/21 01:31:59;;;;;;;39.33;19.13;;;;;;;3.71;70.77;101902.44;5050666;28;20029;-76
2022/12/21 01:34:24;;;;;;;46.92;20.02;;;;;;;3.98;70.92;101949.41;5050554;28;20027;-75
2022/12/21 01:36:50;;;;;;;43.70;19.67;;;;;;;3.73;70.66;101901.44;5050242;28;20105;-74
2022/12/21 01:39:15;;;;;;;49.28;18.45;;;;;;;4.15;71.06;101938.22;5050295;28;20025;-75
2022/12/21 01:41:41;;;;;;;35.90;17.25;;;;;;;4.16;70.56;101937.31;5050317;28;20377;-75
2022/12/21 01:44:44;;;;;;;45.28;17.65;;;;;;;4.21;70.28;101936.22;5050261;28;20497;-77
2022/12/21 01:47:14;;;;;;;35.20;16.80;;;;;;;4.20;70.15;101923.81;5050511;28;20107;-76
2022/12/21 01:49:40;;;;;;;28.77;15.35;;;;;;;4.27;69.51;101935.13;5050118;28;20059;-76
2022/12/21 01:52:11;;;;;;;29.30;13.93;;;;;;;4.29;69.43;101927.94;5048753;28;20033;-75
2022/12/21 01:54:43;;;;;;;28.15;12.57;;;;;;;4.31;69.77;101921.63;5049981;28;20025;-75
2022/12/21 01:57:13;;;;;;;24.67;12.00;;;;;;;4.33;69.78;101914.50;5050364;28;20020;-76
2022/12/21 01:59:45;;;;;;;18.58;9.75;;;;;;;4.39;69.08;101908.06;5049040;28;20040;-76
2022/12/21 02:02:17;;;;;;;20.83;9.27;;;;;;;4.40;69.06;101909.81;5050750;28;20055;-75
2022/12/21 02:04:43;;;;;;;17.92;10.13;;;;;;;4.34;69.06;101916.22;5048672;28;20118;-74
2022/12/21 02:07:08;;;;;;;24.98;9.82;;;;;;;4.29;69.44;101902.19;5048868;28;20025;-75
2022/12/21 02:09:36;;;;;;;25.65;11.50;;;;;;;3.96;69.18;101855.44;5049909;28;20036;-74
2022/12/21 02:12:04;;;;;;;23.35;10.57;;;;;;;4.22;69.39;101879.34;5049686;28;20496;-76
2022/12/21 02:14:34;;;;;;;27.02;10.63;;;;;;;4.33;69.61;101887.84;5049472;28;20033;-75
2022/12/21 02:16:59;;;;;;;23.30;10.85;;;;;;;4.37;69.56;101883.28;5049643;28;20021;-75
2022/12/21 02:19:49;;;;;;;23.88;10.52;;;;;;;4.38;69.41;101883.22;5049647;28;20033;-75
2022/12/21 02:22:33;;;;;;;30.20;12.80;;;;;;;4.42;69.36;101880.44;5049466;28;20036;-75
2022/12/21 02:25:23;;;;;;;20.73;9.82;;;;;;;4.40;69.06;101869.88;5051898;28;20111;-75
2022/12/21 02:28:19;;;;;;;27.77;11.15;;;;;;;4.44;68.99;101879.47;5056099;28;20116;-76
2022/12/21 02:31:11;;;;;;;27.90;12.30;;;;;;;4.16;69.05;101881.41;5052708;28;20033;-74
2022/12/21 02:33:48;;;;;;;23.23;11.70;;;;;;;4.13;69.83;101881.47;5050676;28;20025;-76
2022/12/21 02:36:42;;;;;;;28.23;11.55;;;;;;;4.17;70.04;101875.13;5049939;28;20028;-76
2022/12/21 02:39:15;;;;;;;40.42;12.82;;;;;;;4.20;69.93;101875.88;5049592;28;20431;-75
2022/12/21 02:42:08;;;;;;;58.70;15.27;;;;;;;4.27;69.86;101877.44;5049377;28;20036;-75
2022/12/21 02:44:42;;;;;;;29.60;13.52;;;;;;;4.32;69.40;101878.13;5049703;28;20330;-74
2022/12/21 02:47:24;;;;;;;32.67;13.35;;;;;;;4.37;69.24;101873.47;5049860;28;20106;-76
2022/12/21 02:50:12;;;;;;;24.33;9.30;;;;;;;4.39;68.96;101876.09;5049433;28;20095;-76
2022/12/21 02:52:49;;;;;;;23.77;9.80;;;;;;;4.44;69.13;101871.47;5049498;28;20052;-75
2022/12/21 02:55:15;;;;;;;22.58;10.45;;;;;;;4.25;68.71;101844.63;5049047;28;20499;-77
2022/12/21 02:57:42;;;;;;;28.15;11.48;;;;;;;4.40;68.97;101868.03;5050085;28;20025;-75
2022/12/21 03:00:17;;;;;;;25.38;9.45;;;;;;;4.29;69.25;101875.56;5049225;28;20432;-75
2022/12/21 03:06:28;;;;;;;20.98;10.02;;;;;;;4.24;68.83;101866.88;5047841;28;20052;-76
2022/12/21 03:09:32;;;;;;;20.75;11.13;;;;;;;4.31;68.66;101852.41;5049200;28;20036;-75
2022/12/21 03:12:12;;;;;;;27.63;11.70;;;;;;;4.11;68.78;101822.97;5048992;28;20073;-75
2022/12/21 03:14:43;;;;;;;29.35;12.00;;;;;;;4.29;68.69;101854.25;5049132;28;20029;-75
2022/12/21 03:17:26;;;;;;;33.55;12.93;;;;;;;4.33;69.20;101861.22;5049684;28;20376;-76
2022/12/21 03:20:33;;;;;;;34.20;14.25;;;;;;;4.32;69.16;101846.16;5052971;28;20086;-75
2022/12/21 03:23:16;;;;;;;33.88;16.17;;;;;;;4.25;70.03;101823.31;5030475;28;20531;-74
2022/12/21 03:25:48;;;;;;;36.92;17.25;;;;;;;4.22;69.36;101839.41;5030600;28;20045;-76
2022/12/21 03:28:19;;;;;;;29.05;15.45;;;;;;;4.24;69.47;101839.38;5030880;28;20124;-75
2022/12/21 03:30:50;;;;;;;37.67;17.17;;;;;;;4.26;69.47;101843.72;5033731;28;20033;-75
2022/12/21 03:33:22;;;;;;;31.10;16.92;;;;;;;4.22;69.50;101847.41;5033289;28;20041;-76
2022/12/21 03:35:53;;;;;;;;;;;;;;;4.22;69.52;101839.41;5013999;28;20120;-75
2022/12/21 03:38:24;;;;;;;31.65;16.60;;;;;;;4.10;69.47;101823.88;5030312;28;20283;-75
2022/12/21 03:40:55;;;;;;;36.27;15.83;;;;;;;4.18;70.03;101843.13;5032075;28;20025;-76
2022/12/21 03:43:29;;;;;;;31.58;14.98;;;;;;;4.02;69.63;101833.94;5032112;28;20283;-76
2022/12/21 03:46:01;;;;;;;28.92;14.45;;;;;;;3.98;69.69;101834.97;5031767;28;20041;-75
2022/12/21 03:48:29;;;;;;;33.90;15.52;;;;;;;3.81;69.66;101840.00;5030876;28;20127;-74
2022/12/21 03:51:02;;;;;;;43.10;15.07;;;;;;;3.60;69.95;101823.00;5030276;28;20034;-75
2022/12/21 03:53:49;;;;;;;39.15;16.83;;;;;;;3.55;70.13;101826.69;5030401;28;20041;-75
2022/12/21 03:56:29;;;;;;;38.13;15.57;;;;;;;3.19;69.79;101819.03;5030504;28;20496;-75
2022/12/21 03:58:55;;;;;;;35.08;17.15;;;;;;;3.29;70.56;101815.16;5019518;28;20044;-77
2022/12/21 04:01:38;;;;;;;43.30;17.35;;;;;;;3.30;70.30;101831.97;5052566;28;20021;-76
2022/12/21 04:04:10;;;;;;;35.83;16.23;;;;;;;3.34;70.69;101809.66;5052775;28;20029;-76
2022/12/21 04:06:38;;;;;;;39.92;15.90;;;;;;;3.35;70.48;101818.53;5053115;28;20036;-77
2022/12/21 04:09:04;;;;;;;46.83;18.90;;;;;;;3.38;70.67;101815.75;5052521;28;20025;-75
2022/12/21 04:14:19;;;;;;;43.60;16.70;;;;;;;3.48;70.44;101795.94;5052668;28;20114;-77
2022/12/21 04:16:45;;;;;;;31.30;15.05;;;;;;;3.63;70.54;101814.03;5052376;28;20480;-76
2022/12/21 04:21:54;;;;;;;90.78;40.28;;;;;;;3.32;70.39;101760.13;5052574;28;20040;-77
2022/12/21 04:29:55;;;;;;;47.20;17.35;;;;;;;3.68;69.12;101814.75;5051456;28;20094;-75
2022/12/21 04:32:21;;;;;;;37.90;15.13;;;;;;;3.44;69.60;101773.00;5052741;28;20044;-75
2022/12/21 04:34:46;;;;;;;32.45;15.60;;;;;;;3.36;69.50;101767.09;5036385;28;20033;-75
2022/12/21 04:39:55;;;;;;;44.17;16.35;;;;;;;3.71;70.50;101806.66;5050067;28;20063;-77
2022/12/21 04:42:21;;;;;;;36.30;16.55;;;;;;;3.50;70.46;101765.69;5049290;28;20028;-75
2022/12/21 04:44:47;;;;;;;28.98;14.27;;;;;;;3.76;70.32;101799.41;5050116;28;20040;-77
2022/12/21 04:47:12;;;;;;;35.35;14.32;;;;;;;3.82;70.60;101799.19;5048154;28;20059;-77
2022/12/21 04:49:38;;;;;;;43.33;14.60;;;;;;;3.60;70.14;101752.97;5048616;28;20456;-77
2022/12/21 04:52:03;;;;;;;43.55;16.20;;;;;;;3.87;69.56;101794.56;5048724;28;20039;-79
2022/12/21 04:54:28;;;;;;;47.55;16.58;;;;;;;3.67;69.19;101752.66;5048734;28;20479;-80
2022/12/21 04:56:54;;;;;;;49.45;20.92;;;;;;;3.88;69.49;101793.66;5049171;28;20025;-76
2022/12/21 04:59:19;;;;;;;56.70;16.65;;;;;;;3.81;68.90;101766.38;5048757;28;20094;-77
2022/12/21 05:01:45;;;;;;;41.72;19.85;;;;;;;4.00;69.30;101798.53;5030765;28;20033;-77
2022/12/21 05:04:10;;;;;;;49.45;18.70;;;;;;;3.78;69.47;101760.28;5047448;28;20025;-76
2022/12/21 05:06:36;;;;;;;40.00;17.35;;;;;;;4.03;69.56;101794.88;5037612;28;20033;-77
2022/12/21 05:09:02;;;;;;;51.28;18.98;;;;;;;4.01;69.02;101791.38;5050801;28;20094;-76
2022/12/21 05:11:27;;;;;;;65.18;23.33;;;;;;;3.94;69.00;101804.06;5049142;28;20036;-75
2022/12/21 05:13:53;;;;;;;64.15;23.60;;;;;;;3.92;69.13;101797.91;5050398;28;20033;-77
2022/12/21 05:16:22;;;;;;;53.88;23.00;;;;;;;3.93;68.88;101791.69;5050684;28;20035;-77
2022/12/21 05:18:48;;;;;;;60.30;24.60;;;;;;;3.96;69.07;101790.69;5050411;28;20158;-77
2022/12/21 05:21:14;;;;;;;63.28;24.17;;;;;;;3.91;69.13;101782.03;5050283;28;20507;-77
2022/12/21 05:23:40;;;;;;;75.57;27.05;;;;;;;3.95;68.63;101783.63;5050348;28;20033;-77
2022/12/21 05:26:07;;;;;;;81.10;27.67;;;;;;;3.83;68.60;101755.66;5049562;28;20033;-75
2022/12/21 05:28:32;;;;;;;61.65;29.45;;;;;;;3.99;68.28;101788.81;5049848;28;20545;-77
2022/12/21 05:30:58;;;;;;;73.22;34.60;;;;;;;3.81;68.54;101776.16;5049630;28;20033;-75
2022/12/21 05:33:23;;;;;;;84.63;30.98;;;;;;;3.93;68.48;101791.69;5050221;28;20055;-78
2022/12/21 05:35:49;;;;;;;86.20;32.22;;;;;;;3.92;68.60;101789.94;5058137;28;20033;-76
2022/12/21 05:38:15;;;;;;;71.97;29.25;;;;;;;3.95;68.41;101784.50;5056940;28;20049;-75
2022/12/21 05:40:46;;;;;;;69.78;26.98;;;;;;;3.90;68.54;101788.25;5050657;28;20029;-76
2022/12/21 05:43:11;;;;;;;85.18;28.70;;;;;;;4.03;68.38;101779.78;5049680;28;20036;-75
2022/12/21 05:45:36;;;;;;;87.25;27.70;;;;;;;4.06;68.36;101777.03;5049930;28;20037;-77
2022/12/21 05:48:02;;;;;;;67.60;25.92;;;;;;;4.13;69.11;101778.50;5053877;28;20499;-77
2022/12/21 05:50:27;;;;;;;64.63;26.00;;;;;;;4.15;69.25;101784.66;5051678;28;20079;-75
2022/12/21 05:52:53;;;;;;;63.28;24.55;;;;;;;4.17;69.25;101772.16;5048596;28;20415;-76
2022/12/21 05:55:18;;;;;;;95.80;29.42;;;;;;;4.23;68.88;101763.94;5049394;28;20415;-76
2022/12/21 05:57:44;;;;;;;68.25;24.38;;;;;;;4.06;68.86;101728.22;5049772;28;20035;-78
2022/12/21 06:00:10;;;;;;;140.07;33.78;;;;;;;4.30;68.38;101760.13;5049753;28;20036;-77
2022/12/21 06:02:35;;;;;;;162.57;33.72;;;;;;;4.36;68.85;101764.34;5049570;28;20028;-78
2022/12/21 06:05:01;;;;;;;97.75;29.92;;;;;;;4.11;68.69;101715.59;5047822;28;20040;-76
2022/12/21 06:07:26;;;;;;;125.28;32.50;;;;;;;4.42;68.51;101763.25;5049283;28;20052;-75
2022/12/21 06:09:52;;;;;;;140.60;38.95;;;;;;;4.49;68.25;101764.78;5063106;28;20056;-75
2022/12/21 06:12:17;;;;;;;105.60;30.55;;;;;;;4.48;68.31;101757.69;5048735;28;20498;-76
2022/12/21 06:14:43;;;;;;;107.70;27.98;;;;;;;4.50;67.83;101747.84;5048836;28;20033;-76
2022/12/21 06:17:08;;;;;;;86.65;28.15;;;;;;;4.51;67.90;101755.78;5049028;28;20032;-75
2022/12/21 06:19:33;;;;;;;104.50;30.25;;;;;;;4.51;68.42;101761.13;5048658;28;20082;-76
2022/12/21 06:21:59;;;;;;;94.60;31.55;;;;;;;4.52;68.16;101760.19;5048631;28;20032;-76
2022/12/21 06:24:24;;;;;;;95.53;34.65;;;;;;;4.53;68.08;101750.38;5048300;28;20043;-77
2022/12/21 06:26:50;;;;;;;119.10;33.90;;;;;;;4.37;67.65;101716.34;5048706;28;20052;-75
2022/12/21 06:29:15;;;;;;;131.57;40.00;;;;;;;4.60;67.56;101766.09;5048484;28;20025;-76
2022/12/21 06:31:41;;;;;;;106.90;39.42;;;;;;;4.68;67.94;101760.47;5048483;28;20029;-74
2022/12/21 06:34:06;;;;;;;169.35;39.45;;;;;;;4.49;68.06;101727.47;5048431;28;20036;-74
2022/12/21 06:36:32;;;;;;;95.80;37.63;;;;;;;4.77;68.03;101760.13;5050387;28;20032;-76
2022/12/21 06:38:57;;;;;;;132.60;38.20;;;;;;;4.81;68.20;101767.91;5055885;28;20121;-75
2022/12/21 06:41:23;;;;;;;115.28;37.47;;;;;;;4.94;68.85;101773.63;5052567;28;20033;-76
2022/12/21 06:43:50;;;;;;;112.20;35.03;;;;;;;4.98;69.09;101767.25;5048341;28;20075;-74
2022/12/21 06:46:18;;;;;;;86.07;38.58;;;;;;;4.74;68.96;101728.25;5048364;28;20025;-75
2022/12/21 06:48:44;;;;;;;80.85;32.58;;;;;;;5.06;69.22;101773.13;5048193;28;20129;-76
2022/12/21 06:51:13;;;;;;;87.95;33.20;;;;;;;5.11;69.49;101768.47;5048659;28;20029;-75
2022/12/21 06:53:40;;;;;;;57.40;25.42;;;;;;;5.25;69.84;101776.81;5049102;28;20035;-75
2022/12/21 06:56:09;;;;;;;58.80;25.92;;;;;;;5.39;69.26;101771.75;5048953;28;20032;-75
2022/12/21 06:58:35;;;;;;;63.83;24.95;;;;;;;5.42;69.27;101766.28;5049099;28;20047;-76
2022/12/21 07:01:11;;;;;;;60.42;25.17;;;;;;;5.29;69.18;101727.72;5049139;28;20029;-76
2022/12/21 07:03:38;;;;;;;67.00;26.50;;;;;;;5.66;68.80;101769.72;5049285;28;20344;-76
2022/12/21 07:06:04;;;;;;;57.40;25.40;;;;;;;5.74;68.67;101767.59;5047482;28;20518;-76
2022/12/21 07:08:30;;;;;;;71.63;30.33;;;;;;;5.84;68.65;101770.75;5049189;28;20032;-75
2022/12/21 07:10:58;;;;;;;48.67;22.67;;;;;;;5.87;67.89;101776.81;5047671;28;20028;-75
2022/12/21 07:13:25;;;;;;;54.90;20.77;;;;;;;5.96;67.95;101772.91;5049170;28;20036;-76
2022/12/21 07:15:50;;;;;;;62.78;24.48;;;;;;;6.10;67.48;101770.47;5049105;28;20024;-75
2022/12/21 07:18:16;;;;;;;67.35;22.27;;;;;;;6.25;67.19;101785.81;5049539;28;20444;-77
2022/12/21 07:20:41;;;;;;;71.95;24.45;;;;;;;6.32;66.88;101773.06;5048830;28;20032;-75
2022/12/21 07:23:06;;;;;;;49.97;22.27;;;;;;;6.42;66.56;101769.03;5048899;28;20037;-75
2022/12/21 07:25:32;;;;;;;68.47;23.05;;;;;;;6.50;66.60;101773.06;5048693;28;20037;-75
2022/12/21 07:27:57;;;;;;;52.03;23.00;;;;;;;6.50;66.26;101753.50;5049254;28;20033;-75
2022/12/21 07:30:24;;;;;;;59.58;24.95;;;;;;;6.64;66.06;101772.41;5046465;28;20412;-75
2022/12/21 07:32:52;;;;;;;63.42;22.40;;;;;;;6.70;65.44;101771.25;5048678;28;20043;-76
2022/12/21 07:35:17;;;;;;;59.67;23.92;;;;;;;6.79;65.52;101776.19;5048645;28;20128;-76
2022/12/21 07:37:43;;;;;;;48.22;22.30;;;;;;;6.65;65.03;101751.91;5049601;28;20091;-77
2022/12/21 07:40:09;;;;;;;61.40;25.48;;;;;;;6.75;65.01;101769.25;5056223;28;20025;-77
2022/12/21 07:42:35;;;;;;;66.25;24.13;;;;;;;6.43;65.00;101703.94;5056008;28;20093;-75
2022/12/21 07:45:01;;;;;;;54.97;22.77;;;;;;;6.89;64.77;101773.00;5063768;28;20095;-77
2022/12/21 07:47:26;;;;;;;41.00;19.83;;;;;;;6.98;64.23;101777.91;5048968;28;20676;-76
2022/12/21 07:49:52;;;;;;;38.58;17.88;;;;;;;7.07;63.76;101763.22;5048564;28;20189;-75
2022/12/21 07:52:17;;;;;;;53.35;17.55;;;;;;;7.12;64.05;101756.69;5048625;28;20029;-76
2022/12/21 07:54:42;;;;;;;47.10;18.02;;;;;;;7.14;63.68;101751.28;5048181;28;20528;-75
2022/12/21 07:57:08;;;;;;;49.20;15.20;;;;;;;7.29;62.84;101758.53;5048596;28;20104;-77
2022/12/21 07:59:33;;;;;;;31.85;13.95;;;;;;;7.36;63.07;101757.31;5048505;28;20025;-77
2022/12/21 08:01:59;;;;;;;37.85;15.05;;;;;;;7.42;61.91;101751.66;5048407;28;20078;-77
2022/12/21 08:04:24;;;;;;;48.55;14.05;;;;;;;7.44;61.23;101755.09;5049486;28;20040;-76
2022/12/21 08:06:50;;;;;;;44.70;14.00;;;;;;;7.56;61.43;101748.25;5050557;28;20036;-76
2022/12/21 08:09:15;;;;;;;37.03;12.93;;;;;;;7.54;61.31;101734.97;5049673;28;20048;-75
2022/12/21 08:11:41;;;;;;;33.08;13.85;;;;;;;7.59;60.80;101734.72;5052171;28;20032;-76
2022/12/21 08:14:06;;;;;;;34.80;14.07;;;;;;;7.71;61.18;101728.72;5052214;28;20037;-75
2022/12/21 08:16:32;;;;;;;29.20;13.23;;;;;;;7.66;60.75;101707.56;5051946;28;20037;-75
2022/12/21 08:18:57;;;;;;;28.92;13.50;;;;;;;7.97;60.23;101732.72;5051895;28;20037;-75
2022/12/21 08:21:22;;;;;;;31.58;12.52;;;;;;;7.98;59.84;101724.59;5051670;28;20023;-75
2022/12/21 08:23:48;;;;;;;31.92;14.43;;;;;;;8.14;59.67;101724.63;5051524;28;20055;-77
2022/12/21 08:26:14;;;;;;;38.78;14.90;;;;;;;8.20;59.20;101722.50;5051737;28;20132;-77
2022/12/21 08:28:41;;;;;;;31.08;14.80;;;;;;;8.32;58.79;101723.66;5051513;28;20134;-75
2022/12/21 08:31:09;;;;;;;40.00;14.68;;;;;;;8.43;58.50;101715.94;5051868;28;20035;-76
2022/12/21 08:33:34;;;;;;;30.10;13.85;;;;;;;8.51;58.09;101712.81;5051474;28;20033;-75
2022/12/21 08:36:00;;;;;;;27.27;12.30;;;;;;;8.69;58.49;101720.69;5051631;28;20025;-75
2022/12/21 08:38:26;;;;;;;32.85;14.75;;;;;;;8.67;58.10;101697.59;5050945;28;20094;-77
2022/12/21 08:40:51;;;;;;;36.38;12.32;;;;;;;8.70;57.26;101692.94;5052974;28;20059;-76
2022/12/21 08:43:18;;;;;;;27.77;13.27;;;;;;;8.89;57.34;101703.47;5058145;28;20033;-75
2022/12/21 08:45:44;;;;;;;32.70;11.70;;;;;;;8.86;56.94;101689.38;5055914;28;20166;-76
2022/12/21 08:48:10;;;;;;;31.70;11.73;;;;;;;8.99;57.14;101703.81;5051685;28;20029;-75
2022/12/21 08:50:35;;;;;;;29.73;13.95;;;;;;;9.04;57.13;101699.03;5051596;28;20567;-75
2022/12/21 08:53:01;;;;;;;31.48;12.20;;;;;;;9.15;56.91;101701.94;5051773;28;20071;-76
2022/12/21 08:55:26;;;;;;;28.17;9.10;;;;;;;9.25;56.60;101697.78;5052178;28;20024;-76
2022/12/21 08:57:52;;;;;;;29.58;10.25;;;;;;;9.30;56.73;101687.63;5051796;28;20108;-75
2022/12/21 09:00:17;;;;;;;33.97;10.10;;;;;;;9.44;56.09;101679.63;5050954;28;20072;-76
2022/12/21 09:02:43;;;;;;;33.22;11.07;;;;;;;9.56;55.92;101672.66;5051080;28;20109;-75
2022/12/21 09:05:08;;;;;;;27.13;12.00;;;;;;;9.66;56.09;101663.94;5050855;28;20072;-76
2022/12/21 09:07:34;;;;;;;33.15;11.80;;;;;;;9.87;55.77;101668.97;5050534;28;20017;-76
2022/12/21 09:10:00;;;;;;;22.80;11.68;;;;;;;10.00;55.61;101648.44;5050825;28;20032;-76
2022/12/21 09:12:27;;;;;;;28.75;11.93;;;;;;;10.12;54.67;101644.97;5050645;28;20056;-75
2022/12/21 09:14:52;;;;;;;31.70;11.60;;;;;;;10.25;54.66;101643.25;5050280;28;20037;-75
2022/12/21 09:17:18;;;;;;;52.75;12.80;;;;;;;10.45;53.92;101637.47;5050907;28;20050;-77
2022/12/21 09:19:43;;;;;;;25.33;9.07;;;;;;;10.35;53.67;101623.75;5052130;28;20029;-76
2022/12/21 09:22:09;;;;;;;18.30;8.93;;;;;;;10.42;53.50;101632.28;5050846;28;20163;-76
2022/12/21 09:24:34;;;;;;;29.00;10.85;;;;;;;10.31;53.39;101598.00;5050790;28;20036;-76
2022/12/21 09:26:59;;;;;;;22.23;10.93;;;;;;;10.60;53.06;101625.72;5051062;28;20025;-75
2022/12/21 09:29:25;;;;;;;25.23;11.70;;;;;;;10.53;53.49;101619.00;5050348;28;20226;-75
2022/12/21 09:31:51;;;;;;;33.90;12.68;;;;;;;10.65;53.02;101617.31;5050495;28;20119;-76
2022/12/21 09:34:18;;;;;;;20.55;12.93;;;;;;;10.71;52.84;101615.09;5050339;28;20031;-75
2022/12/21 09:36:44;;;;;;;38.92;16.08;;;;;;;10.75;52.25;101610.38;5050339;28;20083;-76
2022/12/21 09:39:09;;;;;;;53.63;27.20;;;;;;;10.74;51.55;101609.50;5050786;28;20061;-77
2022/12/21 09:42:01;;;;;;;52.13;24.90;;;;;;;10.70;52.33;101609.81;5051258;28;20025;-74
2022/12/21 09:44:56;;;;;;;39.63;22.60;;;;;;;10.62;51.78;101607.63;5052900;28;20029;-75
2022/12/21 09:47:33;;;;;;;34.03;17.73;;;;;;;10.65;51.47;101602.03;5032885;28;20037;-75
2022/12/21 09:50:04;;;;;;;50.92;19.25;;;;;;;10.12;52.19;101508.72;5030609;28;20132;-77
2022/12/21 09:52:41;;;;;;;30.42;14.18;;;;;;;10.72;51.52;101603.38;5027780;28;20044;-76
2022/12/21 09:55:18;;;;;;;38.60;16.20;;;;;;;10.80;51.26;101611.78;5027565;28;20575;-75
2022/12/21 09:57:44;;;;;;;30.17;17.08;;;;;;;10.83;51.19;101595.44;5027503;28;20045;-75
2022/12/21 10:00:16;;;;;;;47.80;18.45;;;;;;;10.89;50.68;101595.03;5027467;28;20040;-75
2022/12/21 10:03:04;;;;;;;36.53;16.33;;;;;;;10.98;50.88;101587.31;5027203;28;20119;-75
2022/12/21 10:05:34;;;;;;;17.27;9.02;;;;;;;10.80;49.60;101552.59;5027297;28;20037;-75
2022/12/21 10:08:03;;;;;;;31.65;9.27;;;;;;;10.73;49.76;101548.56;5027439;28;20018;-74
2022/12/21 10:10:38;;;;;;;25.73;8.50;;;;;;;10.91;49.26;101573.41;5027377;28;20128;-77
2022/12/21 10:13:16;;;;;;;56.40;12.23;;;;;;;10.79;49.34;101539.25;5027199;28;20112;-75
2022/12/21 10:16:08;;;;;;;27.70;7.80;;;;;;;10.73;49.47;101558.50;5027170;28;20416;-75
2022/12/21 10:18:48;;;;;;;17.77;7.30;;;;;;;10.74;49.27;101571.84;5026249;28;20135;-75
2022/12/21 10:21:54;;;;;;;23.20;6.85;;;;;;;10.89;49.01;101560.03;5027391;28;20025;-76
2022/12/21 10:24:26;;;;;;;11.13;5.65;;;;;;;10.77;49.52;101560.88;4963524;28;20039;-74
2022/12/21 10:26:58;;;;;;;11.95;4.97;;;;;;;10.71;48.78;101558.59;4968580;28;20066;-73
2022/12/21 10:29:33;;;;;;;18.15;4.85;;;;;;;10.49;48.89;101531.38;4969147;28;20121;-75
2022/12/21 10:32:00;;;;;;;21.52;3.97;;;;;;;10.64;48.56;101551.06;4968844;28;20075;-75
2022/12/21 10:34:33;;;;;;;14.63;5.03;;;;;;;10.60;49.54;101550.38;4968580;28;20087;-74
2022/12/21 10:37:00;;;;;;;14.13;3.60;;;;;;;10.54;49.52;101549.94;4952178;28;20530;-75
2022/12/21 10:39:28;;;;;;;18.30;4.85;;;;;;;10.56;50.02;101543.47;4968464;28;20034;-74
2022/12/21 10:42:02;;;;;;;8.45;4.57;;;;;;;10.55;50.92;101536.34;4968203;28;20529;-75
2022/12/21 10:44:27;;;;;;;19.42;3.45;;;;;;;10.45;52.08;101540.66;4968537;28;20066;-75
2022/12/21 10:46:53;;;;;;;11.35;4.30;;;;;;;10.25;53.14;101519.56;4968799;28;20113;-76
2022/12/21 10:49:31;;;;;;;12.02;4.38;;;;;;;10.22;53.46;101538.59;4973229;28;20125;-76
2022/12/21 10:51:56;;;;;;;10.18;3.17;;;;;;;10.17;54.24;101533.53;4974359;28;20367;-76
2022/12/21 10:54:29;;;;;;;16.05;4.53;;;;;;;10.05;55.18;101501.19;4968073;28;20054;-76
2022/12/21 10:56:56;;;;;;;;;;;;;;;10.24;55.08;101531.31;4968537;28;20141;-75
2022/12/21 10:59:22;;;;;;;12.77;4.00;;;;;;;9.73;54.35;101455.75;4968742;28;19906;-76
2022/12/21 11:01:49;;;;;;;25.80;4.72;;;;;;;10.23;54.95;101535.81;5024479;28;20041;-76
2022/12/21 11:04:17;;;;;;;6.72;3.25;;;;;;;10.18;54.93;101529.03;5048746;28;20403;-75
2022/12/21 11:06:58;;;;;;;14.38;4.53;;;;;;;10.22;54.86;101530.53;5049003;28;20638;-76
2022/12/21 11:09:35;;;;;;;7.82;3.10;;;;;;;10.21;54.72;101536.88;5049260;28;20029;-75
2022/12/21 11:12:27;;;;;;;27.23;4.72;;;;;;;10.41;55.28;101528.34;5048673;28;20033;-75
2022/12/21 11:14:54;;;;;;;7.20;3.60;;;;;;;10.54;54.27;101528.41;5006483;28;20038;-74
2022/12/21 11:17:22;;;;;;;17.92;4.53;;;;;;;10.50;54.45;101510.75;4974128;28;20034;-75
2022/12/21 11:19:51;;;;;;;33.47;4.82;;;;;;;10.25;55.12;101522.25;5006828;28;20045;-77
2022/12/21 11:22:25;;;;;;;20.85;4.05;;;;;;;10.19;55.93;101522.66;5006862;28;20608;-75
2022/12/21 11:24:56;;;;;;;25.17;4.18;;;;;;;10.21;55.78;101483.13;5006729;28;20038;-76
2022/12/21 11:27:30;;;;;;;7.30;3.42;;;;;;;10.49;55.94;101523.31;5006591;28;20037;-76
2022/12/21 11:30:04;;;;;;;9.02;4.00;;;;;;;10.63;55.74;101515.22;5006961;28;20033;-75
2022/12/21 11:32:30;;;;;;;12.30;3.45;;;;;;;10.63;56.10;101512.53;5006632;28;20116;-75
2022/12/21 11:35:01;;;;;;;18.13;3.55;;;;;;;10.78;56.22;101516.00;5007531;28;20144;-76
2022/12/21 11:37:36;;;;;;;14.27;3.63;;;;;;;10.64;55.92;101500.78;4974395;28;20038;-76
2022/12/21 11:40:11;;;;;;;18.63;3.78;;;;;;;10.54;56.46;101507.75;4992253;28;20128;-75
2022/12/21 11:42:52;;;;;;;14.73;3.53;;;;;;;10.38;56.52;101474.78;5010543;28;20483;-76
2022/12/21 11:45:32;;;;;;;17.50;5.35;;;;;;;10.55;56.73;101500.56;5010096;28;20560;-75